Time;durP1;ratioP1;P1;durP2;ratioP2;P2;SDS_P1;SDS_P2;PMS_P1;PMS_P2;Temp;Humidity;BMP_temperature;BMP_pressure;BME280_temperature;BME280_humidity;BME280_pressure;Samples;Min_cycle;Max_cycle;Signal;HPM_P1;HPM_P2
2024/04/07 00:00:21;;;;;;;;;;;;;;;16.67;60.09;100345.75;5073464;28;19916;-73
2024/04/07 00:02:46;;;;;;;;;;;;;;;16.70;60.10;100353.41;5075129;28;19916;-73
2024/04/07 00:05:12;;;;;;;;;;;;;;;16.81;59.29;100354.38;5075601;28;20477;-72
2024/04/07 00:07:37;;;;;;;;;;;;;;;16.83;59.45;100353.03;5085849;28;19920;-73
2024/04/07 00:10:03;;;;;;;;;;;;;;;16.88;59.14;100356.91;5091322;28;19900;-71
2024/04/07 00:12:29;;;;;;;;;;;;;;;16.85;59.17;100344.66;5093315;28;19945;-73
2024/04/07 00:14:54;;;;;;;;;;;;;;;16.89;58.99;100336.81;5092778;28;19916;-73
2024/04/07 00:17:22;;;;;;;;;;;;;;;16.82;59.87;100335.09;5082581;28;19943;-73
2024/04/07 00:19:47;;;;;;;;;;;;;;;16.81;59.40;100340.78;5076286;28;20033;-72
2024/04/07 00:22:12;;;;;;;;;;;;;;;16.75;59.64;100329.03;5076320;28;19958;-72
2024/04/07 00:24:38;;;;;;;;;;;;;;;16.81;58.78;100333.44;5075280;28;19969;-71
2024/04/07 00:27:03;;;;;;;;;;;;;;;16.86;58.86;100340.84;5073475;28;19923;-71
2024/04/07 00:29:31;;;;;;;;;;;;;;;16.90;58.87;100333.00;5073710;28;19916;-71
2024/04/07 00:31:56;;;;;;;;;;;;;;;16.83;59.56;100325.84;5073154;28;20359;-71
2024/04/07 00:34:21;;;;;;;;;;;;;;;16.82;59.72;100332.38;5073755;28;19916;-71
2024/04/07 00:36:47;;;;;;;;;;;;;;;16.82;59.55;100340.53;5073008;28;20382;-71
2024/04/07 00:39:12;;;;;;;;;;;;;;;16.74;59.88;100357.28;5073421;28;20300;-71
2024/04/07 00:41:37;;;;;;;;;;;;;;;16.48;61.52;100372.38;5072833;28;20387;-72
2024/04/07 00:44:02;;;;;;;;;;;;;;;16.24;63.01;100371.75;5072397;28;19974;-71
2024/04/07 00:46:28;;;;;;;;;;;;;;;16.05;64.41;100369.25;5073379;28;19916;-71
2024/04/07 00:48:53;;;;;;;;;;;;;;;15.86;66.46;100361.34;5072783;28;19923;-70
2024/04/07 00:51:19;;;;;;;;;;;;;;;15.71;67.39;100372.69;5072238;28;19920;-71
2024/04/07 00:53:44;;;;;;;;;;;;;;;15.53;68.75;100378.31;5055228;28;19923;-71
2024/04/07 00:56:09;;;;;;;;;;;;;;;15.39;69.08;100415.75;5055623;28;19931;-71
2024/04/07 00:58:35;;;;;;;;;;;;;;;15.46;68.31;100443.56;5053870;28;19920;-71
2024/04/07 01:01:00;;;;;;;;;;;;;;;15.67;66.46;100420.38;5055389;28;19920;-70
2024/04/07 01:03:25;;;;;;;;;;;;;;;15.82;65.94;100402.72;5072361;28;19927;-71
2024/04/07 01:05:50;;;;;;;;;;;;;;;15.97;65.62;100402.22;5071567;28;20016;-71
2024/04/07 01:08:16;;;;;;;;;;;;;;;16.02;65.26;100394.19;5072493;28;20663;-71
2024/04/07 01:10:41;;;;;;;;;;;;;;;16.10;64.85;100414.69;5072012;28;20353;-72
2024/04/07 01:13:06;;;;;;;;;;;;;;;16.13;64.70;100420.44;5072631;28;20334;-72
2024/04/07 01:15:35;;;;;;;;;;;;;;;16.18;64.71;100428.69;5072580;28;20314;-72
2024/04/07 01:18:00;;;;;;;;;;;;;;;16.21;64.99;100451.78;5071751;28;20023;-71
2024/04/07 01:20:27;;;;;;;;;;;;;;;16.24;64.88;100459.47;5053810;28;20007;-71
2024/04/07 01:22:53;;;;;;;;;;;;;;;16.19;65.29;100467.50;5072143;28;20449;-71
2024/04/07 01:25:19;;;;;;;;;;;;;;;16.04;65.98;100432.78;5071157;28;19917;-72
2024/04/07 01:27:51;;;;;;;;;;;;;;;16.26;65.61;100451.06;5071898;28;20241;-71
2024/04/07 01:30:16;;;;;;;;;;;;;;;16.17;65.83;100456.91;5071796;28;19916;-71
2024/04/07 01:32:42;;;;;;;;;;;;;;;16.05;66.48;100456.16;5071191;28;19917;-72
2024/04/07 01:35:08;;;;;;;;;;;;;;;16.03;66.73;100490.84;5071977;28;19917;-71
2024/04/07 01:37:33;;;;;;;;;;;;;;;16.10;67.05;100496.94;5070902;28;20256;-71
2024/04/07 01:40:02;;;;;;;;;;;;;;;16.05;67.18;100472.44;5071321;28;20023;-71
2024/04/07 01:42:27;;;;;;;;;;;;;;;15.86;68.10;100450.91;5054637;28;19969;-72
2024/04/07 01:44:53;;;;;;;;;;;;;;;15.74;69.09;100447.38;5071347;28;19916;-72
2024/04/07 01:47:18;;;;;;;;;;;;;;;15.60;70.57;100472.06;5072203;28;20014;-71
2024/04/07 01:49:43;;;;;;;;;;;;;;;15.78;69.77;100508.25;5071264;28;19971;-72
2024/04/07 01:52:09;;;;;;;;;;;;;;;15.60;71.08;100530.94;5071290;28;19924;-71
2024/04/07 01:54:34;;;;;;;;;;;;;;;15.57;71.52;100553.94;5071546;28;19978;-71
2024/04/07 01:57:02;;;;;;;;;;;;;;;15.51;71.87;100546.78;5071427;28;19920;-71
2024/04/07 01:59:27;;;;;;;;;;;;;;;15.39;72.67;100543.22;5070196;28;20287;-71
2024/04/07 02:01:52;;;;;;;;;;;;;;;15.30;73.60;100531.91;5071559;28;19957;-70
2024/04/07 02:04:19;;;;;;;;;;;;;;;15.27;74.27;100543.22;5070947;28;19923;-71
2024/04/07 02:06:44;;;;;;;;;;;;;;;15.36;74.32;100546.41;5071536;28;19970;-71
2024/04/07 02:09:10;;;;;;;;;;;;;;;15.38;74.36;100544.28;5071000;28;19920;-71
2024/04/07 02:11:36;;;;;;;;;;;;;;;15.31;75.29;100523.53;5070972;28;20330;-72
2024/04/07 02:14:01;;;;;;;;;;;;;;;15.33;75.48;100525.19;5069944;28;19916;-72
2024/04/07 02:16:26;;;;;;;;;;;;;;;15.39;75.48;100587.47;5072033;28;20015;-72
2024/04/07 02:18:52;;;;;;;;;;;;;;;15.51;74.94;100592.03;5068898;28;20011;-72
2024/04/07 02:21:17;;;;;;;;;;;;;;;15.49;75.41;100595.00;5070386;28;20001;-72
2024/04/07 02:23:42;;;;;;;;;;;;;;;15.52;75.79;100610.81;5071555;28;19920;-72
2024/04/07 02:26:07;;;;;;;;;;;;;;;15.56;75.49;100622.81;5071060;28;20260;-71
2024/04/07 02:28:33;;;;;;;;;;;;;;;15.58;75.51;100639.69;5069992;28;20279;-71
2024/04/07 02:30:58;;;;;;;;;;;;;;;15.60;75.86;100650.34;5071642;28;20351;-72
2024/04/07 02:33:25;;;;;;;;;;;;;;;15.53;76.38;100655.84;5071318;28;19916;-72
2024/04/07 02:35:58;;;;;;;;;;;;;;;15.50;76.56;100666.34;5070175;28;19920;-72
2024/04/07 02:38:23;;;;;;;;;;;;;;;15.53;76.48;100688.41;5071074;28;19912;-71
2024/04/07 02:40:49;;;;;;;;;;;;;;;15.54;76.51;100689.25;5071356;28;20329;-71
2024/04/07 02:43:14;;;;;;;;;;;;;;;15.48;77.10;100699.16;5069726;28;19919;-72
2024/04/07 02:48:23;;;;;;;;;;;;;;;15.36;77.94;100714.56;5074526;28;19947;-72
2024/04/07 02:50:48;;;;;;;;;;;;;;;15.35;78.20;100712.94;5074292;28;19912;-71
2024/04/07 02:53:20;;;;;;;;;;;;;;;15.29;78.38;100710.09;5075270;28;19961;-71
2024/04/07 02:55:45;;;;;;;;;;;;;;;15.17;80.05;100714.66;5074858;28;19958;-72
2024/04/07 02:58:10;;;;;;;;;;;;;;;15.14;80.04;100734.09;5073808;28;19916;-71
2024/04/07 03:00:35;;;;;;;;;;;;;;;15.10;79.88;100730.19;5075379;28;19920;-73
2024/04/07 03:03:01;;;;;;;;;;;;;;;15.10;79.50;100732.91;5057012;28;19920;-71
2024/04/07 03:05:26;;;;;;;;;;;;;;;15.02;80.44;100736.75;5073673;28;19930;-72
2024/04/07 03:07:51;;;;;;;;;;;;;;;14.92;81.47;100731.88;5074512;28;20007;-71
2024/04/07 03:10:18;;;;;;;;;;;;;;;14.91;80.57;100732.94;5073842;28;19967;-71
2024/04/07 03:12:43;;;;;;;;;;;;;;;14.84;81.75;100741.16;5074714;28;19924;-71
2024/04/07 03:15:08;;;;;;;;;;;;;;;14.78;81.87;100725.78;5074996;28;19918;-71
2024/04/07 03:17:34;;;;;;;;;;;;;;;14.72;82.48;100736.72;5074062;28;20340;-70
2024/04/07 03:19:59;;;;;;;;;;;;;;;14.69;82.35;100738.81;5074359;28;20011;-71
2024/04/07 03:22:24;;;;;;;;;;;;;;;14.69;82.35;100740.72;5074162;28;19916;-70
2024/04/07 03:24:49;;;;;;;;;;;;;;;14.65;82.25;100731.34;5073123;28;19931;-72
2024/04/07 03:27:14;;;;;;;;;;;;;;;14.61;82.53;100752.66;5073897;28;19920;-71
2024/04/07 03:29:40;;;;;;;;;;;;;;;14.60;81.61;100761.00;5074222;28;20050;-72
2024/04/07 03:32:05;;;;;;;;;;;;;;;14.58;81.73;100753.13;5075399;28;19978;-72
2024/04/07 03:34:30;;;;;;;;;;;;;;;14.70;80.21;100748.63;5073730;28;19917;-72
2024/04/07 03:36:56;;;;;;;;;;;;;;;14.64;80.24;100752.22;5074003;28;19966;-72
2024/04/07 03:39:21;;;;;;;;;;;;;;;14.56;80.60;100755.22;5073672;28;19920;-71
2024/04/07 03:41:46;;;;;;;;;;;;;;;14.56;81.17;100768.75;5073346;28;19978;-71
2024/04/07 03:44:11;;;;;;;;;;;;;;;14.55;80.78;100786.91;5073964;28;19908;-71
2024/04/07 03:46:37;;;;;;;;;;;;;;;14.49;80.93;100768.84;5074481;28;19970;-72
2024/04/07 03:49:02;;;;;;;;;;;;;;;14.42;81.50;100769.97;5073573;28;19917;-72
2024/04/07 03:51:27;;;;;;;;;;;;;;;14.39;81.79;100766.66;5073034;28;19923;-72
2024/04/07 03:53:55;;;;;;;;;;;;;;;14.42;82.06;100761.84;5073354;28;19929;-72
2024/04/07 03:56:21;;;;;;;;;;;;;;;14.37;81.80;100773.34;5072890;28;20401;-71
2024/04/07 03:58:46;;;;;;;;;;;;;;;14.42;81.66;100757.25;5073198;28;19912;-72
2024/04/07 04:01:11;;;;;;;;;;;;;;;14.34;81.66;100758.38;5073124;28;19935;-72
2024/04/07 04:03:36;;;;;;;;;;;;;;;14.43;81.12;100755.38;5073178;28;19912;-72
2024/04/07 04:06:03;;;;;;;;;;;;;;;14.59;79.84;100765.59;5072599;28;19924;-72
2024/04/07 04:08:28;;;;;;;;;;;;;;;14.60;79.59;100761.84;5073465;28;19935;-71
2024/04/07 04:10:54;;;;;;;;;;;;;;;14.63;79.46;100771.41;5072466;28;19920;-72
2024/04/07 04:13:19;;;;;;;;;;;;;;;14.64;79.42;100768.47;5072669;28;19955;-71
2024/04/07 04:15:45;;;;;;;;;;;;;;;14.70;78.74;100748.63;5072455;28;19916;-72
2024/04/07 04:18:11;;;;;;;;;;;;;;;14.74;79.07;100745.47;5073637;28;19920;-72
2024/04/07 04:20:39;;;;;;;;;;;;;;;14.73;79.30;100743.78;5071058;28;20299;-73
2024/04/07 04:23:04;;;;;;;;;;;;;;;14.67;79.58;100735.47;5073410;28;20445;-72
2024/04/07 04:25:29;;;;;;;;;;;;;;;14.61;79.52;100722.88;5072734;28;20063;-72
2024/04/07 04:27:55;;;;;;;;;;;;;;;14.68;78.04;100729.03;5072308;28;20355;-72
2024/04/07 04:30:24;;;;;;;;;;;;;;;14.73;77.30;100738.38;5074203;28;20274;-71
2024/04/07 04:32:49;;;;;;;;;;;;;;;14.69;77.58;100741.53;5072519;28;19968;-73
2024/04/07 04:35:14;;;;;;;;;;;;;;;14.68;77.40;100717.41;5072043;28;20352;-72
2024/04/07 04:37:39;;;;;;;;;;;;;;;14.69;77.17;100725.28;5072897;28;19920;-72
2024/04/07 04:40:08;;;;;;;;;;;;;;;14.67;76.99;100729.25;5073233;28;19925;-72
2024/04/07 04:42:33;;;;;;;;;;;;;;;14.67;76.42;100740.91;5071955;28;19912;-72
2024/04/07 04:44:58;;;;;;;;;;;;;;;14.63;75.99;100747.84;5072636;28;20624;-72
2024/04/07 04:47:23;;;;;;;;;;;;;;;14.66;75.40;100750.09;5072523;28;19924;-73
2024/04/07 04:49:49;;;;;;;;;;;;;;;14.65;75.57;100750.31;5070490;28;19923;-72
2024/04/07 04:52:14;;;;;;;;;;;;;;;14.66;74.30;100758.22;5073260;28;19913;-72
2024/04/07 04:54:40;;;;;;;;;;;;;;;14.68;74.27;100748.00;5065865;28;19923;-72
2024/04/07 04:57:05;;;;;;;;;;;;;;;14.65;74.36;100748.44;5069425;28;19965;-73
2024/04/07 04:59:30;;;;;;;;;;;;;;;14.69;73.59;100743.44;5070690;28;20276;-72
2024/04/07 05:01:55;;;;;;;;;;;;;;;14.67;73.50;100746.31;5051701;28;20390;-72
2024/04/07 05:04:20;;;;;;;;;;;;;;;14.62;73.41;100743.50;5069499;28;19947;-71
2024/04/07 05:06:48;;;;;;;;;;;;;;;14.63;74.19;100758.69;5050331;28;19917;-72
2024/04/07 05:09:14;;;;;;;;;;;;;;;14.61;73.65;100758.09;5065204;28;19920;-73
2024/04/07 05:11:39;;;;;;;;;;;;;;;14.61;73.68;100760.78;5051486;28;19916;-72
2024/04/07 05:14:04;;;;;;;;;;;;;;;14.61;73.46;100759.94;5066712;28;19923;-72
2024/04/07 05:16:29;;;;;;;;;;;;;;;14.60;73.34;100751.00;5070768;28;20574;-72
2024/04/07 05:18:55;;;;;;;;;;;;;;;14.63;73.08;100742.44;5068661;28;19923;-72
2024/04/07 05:21:21;;;;;;;;;;;;;;;14.64;73.13;100746.81;5069955;28;19927;-72
2024/04/07 05:23:46;;;;;;;;;;;;;;;14.65;73.22;100753.84;5068633;28;20053;-72
2024/04/07 05:26:16;;;;;;;;;;;;;;;14.67;73.04;100751.75;5069454;28;20276;-72
2024/04/07 05:28:42;;;;;;;;;;;;;;;14.67;73.22;100756.34;5069990;28;19916;-72
2024/04/07 05:31:13;;;;;;;;;;;;;;;14.66;73.01;100751.97;5069616;28;20266;-73
2024/04/07 05:33:41;;;;;;;;;;;;;;;14.68;72.86;100753.44;5069700;28;19928;-72
2024/04/07 05:36:07;;;;;;;;;;;;;;;14.69;73.25;100760.50;5069982;28;20369;-72
2024/04/07 05:38:35;;;;;;;;;;;;;;;14.70;72.46;100767.59;5068065;28;20433;-72
2024/04/07 05:41:01;;;;;;;;;;;;;;;14.77;72.08;100772.09;5069180;28;19966;-73
2024/04/07 05:43:26;;;;;;;;;;;;;;;14.77;72.13;100782.94;5069253;28;19916;-72
2024/04/07 05:45:51;;;;;;;;;;;;;;;14.78;71.28;100776.47;5070032;28;19969;-72
2024/04/07 05:48:17;;;;;;;;;;;;;;;14.80;71.50;100787.91;5063858;28;20360;-72
2024/04/07 05:50:42;;;;;;;;;;;;;;;14.78;71.54;100796.25;5064034;28;19927;-73
2024/04/07 05:53:07;;;;;;;;;;;;;;;14.79;71.51;100806.03;5069424;28;20690;-73
2024/04/07 05:55:33;;;;;;;;;;;;;;;14.80;70.60;100810.41;5069477;28;20416;-73
2024/04/07 05:57:58;;;;;;;;;;;;;;;14.83;69.43;100809.13;5069322;28;20314;-73
2024/04/07 06:00:26;;;;;;;;;;;;;;;14.83;69.45;100801.00;5069711;28;19955;-73
2024/04/07 06:02:52;;;;;;;;;;;;;;;14.84;69.33;100810.78;5068168;28;19917;-73
2024/04/07 06:05:17;;;;;;;;;;;;;;;14.90;68.29;100828.84;5069079;28;19958;-73
2024/04/07 06:07:42;;;;;;;;;;;;;;;14.93;68.34;100831.13;5068631;28;20532;-73
2024/04/07 06:10:07;;;;;;;;;;;;;;;14.97;68.01;100831.47;5068468;28;20553;-75
2024/04/07 06:12:33;;;;;;;;;;;;;;;14.97;68.02;100854.00;5069460;28;19916;-74
2024/04/07 06:14:58;;;;;;;;;;;;;;;15.01;67.86;100865.22;5072464;28;19919;-74
2024/04/07 06:17:23;;;;;;;;;;;;;;;15.06;67.32;100864.53;5072322;28;19923;-73
2024/04/07 06:19:51;;;;;;;;;;;;;;;14.96;66.89;100865.91;5072086;28;20003;-75
2024/04/07 06:22:17;;;;;;;;;;;;;;;15.19;65.76;100869.78;5069192;28;21175;-73
2024/04/07 06:24:43;;;;;;;;;;;;;;;15.22;65.64;100869.34;5068134;28;19920;-72
2024/04/07 06:27:09;;;;;;;;;;;;;;;15.27;65.68;100871.38;5068165;28;19928;-71
2024/04/07 06:29:34;;;;;;;;;;;;;;;15.33;65.16;100872.38;5070244;28;20407;-71
2024/04/07 06:31:59;;;;;;;;;;;;;;;15.33;65.40;100875.06;5068705;28;19943;-72
2024/04/07 06:34:25;;;;;;;;;;;;;;;15.23;64.86;100873.72;5066294;28;19916;-71
2024/04/07 06:36:50;;;;;;;;;;;;;;;15.26;64.72;100884.13;5069701;28;20321;-72
2024/04/07 06:39:15;;;;;;;;;;;;;;;15.39;64.11;100874.97;5068744;28;19912;-72
2024/04/07 06:41:41;;;;;;;;;;;;;;;15.52;63.54;100881.28;5068605;28;19916;-72
2024/04/07 06:44:07;;;;;;;;;;;;;;;15.63;63.28;100882.41;5068915;28;19951;-72
2024/04/07 06:46:32;;;;;;;;;;;;;;;15.81;62.98;100884.22;5069545;28;19956;-71
2024/04/07 06:48:57;;;;;;;;;;;;;;;15.87;62.53;100884.16;5066942;28;19916;-71
2024/04/07 06:51:22;;;;;;;;;;;;;;;16.18;61.90;100901.25;5069361;28;20022;-71
2024/04/07 06:53:48;;;;;;;;;;;;;;;16.58;60.47;100910.59;5069491;28;19948;-72
2024/04/07 06:56:13;;;;;;;;;;;;;;;17.38;58.13;100912.91;5068000;28;19924;-71
2024/04/07 06:58:38;;;;;;;;;;;;;;;17.99;54.99;100912.44;5069722;28;19912;-71
2024/04/07 07:01:04;;;;;;;;;;;;;;;19.11;50.33;100921.81;5068462;28;19970;-72
2024/04/07 07:03:29;;;;;;;;;;;;;;;19.77;49.05;100916.31;5067088;28;20430;-73
2024/04/07 07:05:54;;;;;;;;;;;;;;;20.45;46.45;100913.13;5069289;28;20311;-73
2024/04/07 07:08:19;;;;;;;;;;;;;;;20.83;45.64;100934.19;5068415;28;19966;-73
2024/04/07 07:10:58;;;;;;;;;;;;;;;21.64;43.45;100930.22;5067223;28;19956;-73
2024/04/07 07:13:24;;;;;;;;;;;;;;;21.20;44.23;100933.28;5082080;28;19904;-73
2024/04/07 07:15:49;;;;;;;;;;;;;;;20.66;45.64;100929.66;5084544;28;20020;-73
2024/04/07 07:18:14;;;;;;;;;;;;;;;20.07;46.71;100923.19;5081217;28;19944;-72
2024/04/07 07:20:39;;;;;;;;;;;;;;;20.43;46.36;100926.25;5084570;28;20655;-72
2024/04/07 07:23:05;;;;;;;;;;;;;;;20.53;45.95;100922.75;5079194;28;20352;-71
2024/04/07 07:25:30;;;;;;;;;;;;;;;19.68;47.07;100917.84;5068453;28;20364;-71
2024/04/07 07:27:58;;;;;;;;;;;;;;;18.90;49.58;100916.06;5070058;28;19916;-71
2024/04/07 07:30:23;;;;;;;;;;;;;;;18.46;51.42;100914.03;5070598;28;20368;-71
2024/04/07 07:32:52;;;;;;;;;;;;;;;18.47;51.92;100919.25;5072595;28;20007;-71
2024/04/07 07:35:17;;;;;;;;;;;;;;;18.33;52.83;100924.22;5073186;28;19916;-70
2024/04/07 07:37:43;;;;;;;;;;;;;;;18.08;53.68;100921.03;5072690;28;19913;-72
2024/04/07 07:40:08;;;;;;;;;;;;;;;17.84;55.73;100926.56;5072222;28;19916;-72
2024/04/07 07:42:33;;;;;;;;;;;;;;;17.76;55.66;100929.69;5072424;28;19924;-72
2024/04/07 07:44:58;;;;;;;;;;;;;;;17.48;56.81;100925.88;5072752;28;20381;-72
2024/04/07 07:47:24;;;;;;;;;;;;;;;17.24;57.35;100931.41;5072390;28;20407;-72
2024/04/07 07:49:49;;;;;;;;;;;;;;;17.09;58.72;100931.88;5070879;28;20407;-72
2024/04/07 07:52:14;;;;;;;;;;;;;;;17.11;59.27;100941.47;5071577;28;19923;-71
2024/04/07 07:54:40;;;;;;;;;;;;;;;16.99;59.14;100948.81;5070958;28;19917;-71
2024/04/07 07:57:05;;;;;;;;;;;;;;;16.93;60.09;100947.84;5071299;28;19999;-71
2024/04/07 07:59:30;;;;;;;;;;;;;;;17.11;59.85;100949.66;5070232;28;20311;-71
2024/04/07 08:01:56;;;;;;;;;;;;;;;17.24;58.55;100956.69;5071553;28;19967;-72
2024/04/07 08:04:21;;;;;;;;;;;;;;;17.48;58.30;100961.25;5069992;28;19943;-72
2024/04/07 08:06:46;;;;;;;;;;;;;;;17.49;58.44;100963.75;5057110;28;19964;-72
2024/04/07 08:09:11;;;;;;;;;;;;;;;18.03;57.43;100968.91;5069793;28;20029;-73
2024/04/07 08:11:37;;;;;;;;;;;;;;;18.61;55.13;100968.00;5070649;28;20384;-71
2024/04/07 08:14:02;;;;;;;;;;;;;;;19.14;53.32;100974.00;5071705;28;20382;-73
2024/04/07 08:16:27;;;;;;;;;;;;;;;20.39;49.43;100984.41;5070916;28;19963;-72
2024/04/07 08:18:52;;;;;;;;;;;;;;;21.98;45.17;100999.34;5072017;28;19964;-72
2024/04/07 08:21:18;;;;;;;;;;;;;;;22.85;42.38;101007.66;5068621;28;19924;-73
2024/04/07 08:23:43;;;;;;;;;;;;;;;23.20;42.11;101009.78;5069928;28;19920;-73
2024/04/07 08:26:08;;;;;;;;;;;;;;;23.89;40.49;101004.59;5059675;28;19998;-73
2024/04/07 08:28:39;;;;;;;;;;;;;;;24.28;39.44;101003.84;5070281;28;20011;-71
2024/04/07 08:31:04;;;;;;;;;;;;;;;23.47;40.13;100993.00;5068841;28;19955;-71
2024/04/07 08:33:30;;;;;;;;;;;;;;;23.79;40.07;100991.72;5070420;28;19956;-71
2024/04/07 08:35:55;;;;;;;;;;;;;;;23.68;39.44;100987.41;5068996;28;19925;-73
2024/04/07 08:38:24;;;;;;;;;;;;;;;22.95;40.96;100970.31;5065840;28;19927;-71
2024/04/07 08:40:49;;;;;;;;;;;;;;;22.90;42.29;100993.09;5063252;28;19939;-72
2024/04/07 08:43:14;;;;;;;;;;;;;;;22.33;43.11;100984.84;5064246;28;20344;-72
2024/04/07 08:45:39;;;;;;;;;;;;;;;23.50;40.94;101002.59;5045710;28;20305;-72
2024/04/07 08:48:05;;;;;;;;;;;;;;;23.44;40.41;100988.88;5063703;28;19921;-72
2024/04/07 08:50:30;;;;;;;;;;;;;;;22.65;42.10;100999.44;5066863;28;19927;-72
2024/04/07 08:52:57;;;;;;;;;;;;;;;22.88;42.07;100989.00;5066217;28;20027;-72
2024/04/07 08:55:23;;;;;;;;;;;;;;;22.71;42.55;100993.66;5042648;28;19928;-73
2024/04/07 08:57:48;;;;;;;;;;;;;;;21.89;43.15;100991.63;5070545;28;19923;-72
2024/04/07 09:00:13;;;;;;;;;;;;;;;21.22;46.01;100991.34;5046727;28;20336;-72
2024/04/07 09:02:38;;;;;;;;;;;;;;;20.92;47.40;100990.06;5064654;28;20290;-72
2024/04/07 09:05:04;;;;;;;;;;;;;;;20.56;49.08;100978.84;5071365;28;19923;-73
2024/04/07 09:07:29;;;;;;;;;;;;;;;20.57;48.45;100981.28;5072499;28;19924;-72
2024/04/07 09:09:54;;;;;;;;;;;;;;;20.08;50.00;100987.72;5067790;28;20552;-73
2024/04/07 09:12:19;;;;;;;;;;;;;;;19.19;52.59;100978.69;5061638;28;20023;-72
2024/04/07 09:14:51;;;;;;;;;;;;;;;19.28;53.29;100990.00;5071386;28;20015;-73
2024/04/07 09:17:16;;;;;;;;;;;;;;;19.11;54.34;100992.78;5069974;28;19923;-73
2024/04/07 09:19:41;;;;;;;;;;;;;;;18.72;56.81;100990.78;5071294;28;19916;-73
2024/04/07 09:22:07;;;;;;;;;;;;;;;19.03;56.25;100991.31;5060096;28;19916;-73
2024/04/07 09:24:33;;;;;;;;;;;;;;;18.47;57.80;100986.56;5069215;28;19920;-73
2024/04/07 09:27:01;;;;;;;;;;;;;;;19.24;56.43;100987.75;5071302;28;20062;-73
2024/04/07 09:29:29;;;;;;;;;;;;;;;19.62;54.44;100988.00;5072016;28;19916;-73
2024/04/07 09:31:55;;;;;;;;;;;;;;;19.58;53.72;100984.09;5069901;28;19923;-73
2024/04/07 09:34:20;;;;;;;;;;;;;;;19.48;53.59;100975.81;5071247;28;20099;-73
2024/04/07 09:36:45;;;;;;;;;;;;;;;19.32;54.56;100980.22;5072224;28;19916;-73
2024/04/07 09:39:11;;;;;;;;;;;;;;;19.41;54.84;100997.84;5069088;28;19931;-73
2024/04/07 09:41:37;;;;;;;;;;;;;;;19.29;53.94;100988.91;5070631;28;19920;-73
2024/04/07 09:44:04;;;;;;;;;;;;;;;19.20;55.69;100977.59;5070900;28;19912;-73
2024/04/07 09:46:29;;;;;;;;;;;;;;;19.85;53.45;100997.00;5070548;28;19916;-73
2024/04/07 09:48:56;;;;;;;;;;;;;;;20.45;52.31;100994.31;5052357;28;19916;-73
2024/04/07 09:51:21;;;;;;;;;;;;;;;20.27;51.41;100976.41;5052762;28;20737;-73
2024/04/07 09:53:59;;;;;;;;;;;;;;;19.47;52.66;100985.88;5069194;28;19923;-73
2024/04/07 09:56:28;;;;;;;;;;;;;;;18.93;55.33;100991.94;5069919;28;19916;-73
2024/04/07 09:58:56;;;;;;;;;;;;;;;19.20;54.63;100992.09;5070324;28;19916;-73
2024/04/07 10:01:21;;;;;;;;;;;;;;;19.05;56.17;100997.34;5070384;28;19916;-73
2024/04/07 10:03:49;;;;;;;;;;;;;;;19.06;55.40;101004.44;5069959;28;19935;-74
2024/04/07 10:06:15;;;;;;;;;;;;;;;19.22;55.26;100995.41;5052759;28;19982;-73
2024/04/07 10:08:40;;;;;;;;;;;;;;;19.45;53.82;100998.97;5069696;28;20704;-74
2024/04/07 10:11:13;;;;;;;;;;;;;;;19.35;54.23;100998.84;5069531;28;19966;-73
2024/04/07 10:13:38;;;;;;;;;;;;;;;19.13;54.32;100998.81;5070125;28;20341;-73
2024/04/07 10:16:03;;;;;;;;;;;;;;;19.27;53.53;100971.97;5070331;28;19912;-73
2024/04/07 10:18:29;;;;;;;;;;;;;;;19.50;52.85;100996.31;5069523;28;20415;-73
2024/04/07 10:20:55;;;;;;;;;;;;;;;19.88;52.62;101003.88;5070525;28;19912;-73
2024/04/07 10:23:24;;;;;;;;;;;;;;;19.77;51.63;100984.59;5069009;28;19912;-74
2024/04/07 10:25:50;;;;;;;;;;;;;;;20.33;49.94;100993.69;5068128;28;19977;-73
2024/04/07 10:28:16;;;;;;;;;;;;;;;20.54;49.32;100995.53;5070450;28;19916;-73
2024/04/07 10:31:10;;;;;;;;;;;;;;;21.13;47.27;100988.28;5069672;28;19916;-73
2024/04/07 10:33:36;;;;;;;;;;;;;;;21.70;45.71;101004.22;5055735;28;19924;-73
2024/04/07 10:36:04;;;;;;;;;;;;;;;21.88;44.55;100998.25;5070398;28;19923;-73
2024/04/07 10:38:45;;;;;;;;;;;;;;;22.45;44.28;101006.56;5068837;28;19925;-74
2024/04/07 10:41:37;;;;;;;;;;;;;;;22.36;43.45;101008.19;5069226;28;19908;-74
2024/04/07 10:44:03;;;;;;;;;;;;;;;22.51;42.58;101005.47;5067165;28;20014;-73
2024/04/07 10:46:29;;;;;;;;;;;;;;;22.38;43.47;101006.00;5070244;28;20411;-73
2024/04/07 10:48:56;;;;;;;;;;;;;;;22.81;42.69;101011.25;5069275;28;20002;-72
2024/04/07 10:51:21;;;;;;;;;;;;;;;22.81;41.24;101003.00;5070410;28;19986;-73
2024/04/07 10:53:47;;;;;;;;;;;;;;;22.54;41.53;100987.63;5068424;28;19913;-74
2024/04/07 10:56:12;;;;;;;;;;;;;;;22.40;41.94;100998.31;5068783;28;19994;-73
2024/04/07 10:58:37;;;;;;;;;;;;;;;22.53;42.35;100992.31;5070258;28;19920;-73
2024/04/07 11:01:03;;;;;;;;;;;;;;;22.04;41.31;100990.06;5069743;28;19913;-73
2024/04/07 11:03:28;;;;;;;;;;;;;;;22.08;41.67;100994.72;5068353;28;20313;-73
2024/04/07 11:05:54;;;;;;;;;;;;;;;21.86;42.41;100980.41;5072382;28;19916;-72
2024/04/07 11:08:22;;;;;;;;;;;;;;;22.12;42.03;100986.75;5072535;28;19922;-72
2024/04/07 11:10:51;;;;;;;;;;;;;;;22.35;41.26;100982.66;5071294;28;19924;-72
2024/04/07 11:13:17;;;;;;;;;;;;;;;23.10;39.20;100997.75;5073282;28;19916;-73
2024/04/07 11:15:42;;;;;;;;;;;;;;;22.95;39.55;100984.88;5071341;28;19939;-71
2024/04/07 11:18:18;;;;;;;;;;;;;;;22.98;40.51;100994.47;5076027;28;20679;-72
2024/04/07 11:20:43;;;;;;;;;;;;;;;22.37;40.78;100990.63;5073555;28;19971;-74
2024/04/07 11:23:12;;;;;;;;;;;;;;;23.36;39.67;101000.44;5054267;28;19956;-71
2024/04/07 11:25:38;;;;;;;;;;;;;;;24.30;37.61;100987.88;5071084;28;19932;-72
2024/04/07 11:28:12;;;;;;;;;;;;;;;24.24;37.87;101004.72;5073733;28;19916;-73
2024/04/07 11:30:38;;;;;;;;;;;;;;;24.30;36.61;100996.13;5069599;28;20023;-72
2024/04/07 11:33:04;;;;;;;;;;;;;;;24.16;37.28;101004.19;5072212;28;19938;-73
2024/04/07 11:35:29;;;;;;;;;;;;;;;24.49;37.13;100998.19;5073721;28;19912;-73
2024/04/07 11:37:54;;;;;;;;;;;;;;;24.21;36.53;100992.34;5071396;28;19928;-73
2024/04/07 11:40:20;;;;;;;;;;;;;;;24.78;36.73;101000.16;5052957;28;19916;-72
2024/04/07 11:42:45;;;;;;;;;;;;;;;24.12;37.00;100992.13;5072810;28;19917;-73
2024/04/07 11:45:10;;;;;;;;;;;;;;;23.89;37.02;100991.69;5071869;28;19973;-72
2024/04/07 11:47:35;;;;;;;;;;;;;;;24.04;37.58;100978.97;5073915;28;19927;-73
2024/04/07 11:50:01;;;;;;;;;;;;;;;23.93;37.42;100995.50;5077556;28;19928;-72
2024/04/07 11:52:26;;;;;;;;;;;;;;;23.92;38.02;101002.09;5071750;28;19927;-72
2024/04/07 11:54:51;;;;;;;;;;;;;;;24.62;35.50;100996.72;5070706;28;19959;-73
2024/04/07 11:57:24;;;;;;;;;;;;;;;23.97;35.72;100982.06;5073778;28;19917;-73
2024/04/07 11:59:49;;;;;;;;;;;;;;;23.53;36.86;101002.03;5069357;28;19952;-73
2024/04/07 12:02:14;;;;;;;;;;;;;;;24.09;35.99;100987.22;5072236;28;19991;-73
2024/04/07 12:04:41;;;;;;;;;;;;;;;23.90;36.36;100989.75;5073308;28;20292;-73
2024/04/07 12:07:07;;;;;;;;;;;;;;;23.68;36.06;100993.72;5073389;28;19922;-73
2024/04/07 12:09:32;;;;;;;;;;;;;;;23.87;36.35;101002.16;5068073;28;19924;-73
2024/04/07 12:11:57;;;;;;;;;;;;;;;23.99;36.90;100993.59;5059001;28;19917;-72
2024/04/07 12:14:26;;;;;;;;;;;;;;;24.70;34.65;100993.34;5071978;28;19920;-73
2024/04/07 12:16:51;;;;;;;;;;;;;;;25.97;33.18;101004.31;5071300;28;19951;-73
2024/04/07 12:19:16;;;;;;;;;;;;;;;25.69;33.01;101004.94;5053755;28;19962;-73
2024/04/07 12:21:41;;;;;;;;;;;;;;;24.79;33.94;100999.06;5071942;28;19917;-73
2024/04/07 12:24:06;;;;;;;;;;;;;;;25.11;34.09;101000.38;5071828;28;19912;-73
2024/04/07 12:26:32;;;;;;;;;;;;;;;24.90;34.23;100997.81;5071470;28;19990;-73
2024/04/07 12:28:57;;;;;;;;;;;;;;;24.37;35.51;100993.84;5071654;28;19913;-73
2024/04/07 12:31:22;;;;;;;;;;;;;;;24.15;36.37;101002.56;5072140;28;19927;-73